Aeroporto :
LOGIN :

Iscrizione | Disclaimer

   EN    FR    IT 

 










Sommario :    VFR   VFR Marginale   IFR   IFR Intensivo   IFR Molto Intensivo
Visibilità : 
Base nubi : 
>= 8 km
>= 3000ft
5 / 8 km
1000 / 3000 ft
1500m / 5 km
500 / 1000 ft
800 / 1500m
200 / 500 ft
< 800m
< 200 ft
Simboli :   Temporali  Nebbia  Neve Forte  Precipitazioni Forti  Vento > 20 kt
SIGMETs :   Varie  Temporali  Ghiacco  Turbolenza  Onda orograficha  Ceneri Vulcaniche






- Altitudine del aeroporto : 1345 ft
- Codice IATA : FRZ


ETHF - Fritzlar

ULTIMO METAR :
  • 221620Z 08003KT 9999 FEW020 BKN260 14/09 Q1023 BLU+BLU+

METARs OBSOLETI :
  • 221520Z 08002KT 9999 FEW021 BKN300 15/09 Q1023 BLU+BLU+
  • 221420Z 11003KT 9999 FEW021 BKN290 15/09 Q1023 BLU+BLU+

TAF TAF ETHF
Valido dal 22 a 14 ore il 22 a 23 ore UTC


221328Z 2214/2223 14005KT 9999 NSW FEW020 BKN120



MetMap, La meteo Aeronautica in un colpo d'occhio ! - Copyright ORBIFLY Dicembre 2007 - Disclaimer

ORBIFLY MET'MAP TEAM :

Programmazione e sviluppo : Alexandra Zaïnal
Concezione e sviluppo : Baudouin d'Aumeries
Co-Programmazione e sviluppo : Marc-Olivier Méhu
Supporto tecnico e logistico : Manuel Goepfert
Aiuto per la traduzione : Arnaldo La Scala

Contatto : metmap@orbifly.com




FONTI E CREDITI :

   NOAA